sensor_id;sensor_type;location;lat;lon;timestamp;P1;durP1;ratioP1;P2;durP2;ratioP2
31128;SDS011;17777;48.770;8.944;2023-07-24T00:00:16;6.93;;;4.18;;
31128;SDS011;17777;48.770;8.944;2023-07-24T00:02:42;5.13;;;4.10;;
31128;SDS011;17777;48.770;8.944;2023-07-24T00:05:08;5.10;;;4.22;;
31128;SDS011;17777;48.770;8.944;2023-07-24T00:07:35;5.07;;;4.10;;
31128;SDS011;17777;48.770;8.944;2023-07-24T00:10:01;9.85;;;4.22;;
31128;SDS011;17777;48.770;8.944;2023-07-24T00:12:27;6.50;;;4.72;;
31128;SDS011;17777;48.770;8.944;2023-07-24T00:14:53;8.13;;;4.72;;
31128;SDS011;17777;48.770;8.944;2023-07-24T00:17:19;6.22;;;4.57;;
31128;SDS011;17777;48.770;8.944;2023-07-24T00:19:45;5.55;;;4.45;;
31128;SDS011;17777;48.770;8.944;2023-07-24T00:22:11;5.60;;;4.25;;
31128;SDS011;17777;48.770;8.944;2023-07-24T00:24:37;5.47;;;4.07;;
31128;SDS011;17777;48.770;8.944;2023-07-24T00:27:02;6.03;;;4.53;;
31128;SDS011;17777;48.770;8.944;2023-07-24T00:29:28;9.07;;;4.90;;
31128;SDS011;17777;48.770;8.944;2023-07-24T00:31:54;6.65;;;4.60;;
31128;SDS011;17777;48.770;8.944;2023-07-24T00:34:20;8.25;;;4.63;;
31128;SDS011;17777;48.770;8.944;2023-07-24T00:36:46;5.72;;;4.50;;
31128;SDS011;17777;48.770;8.944;2023-07-24T00:39:13;10.82;;;4.63;;
31128;SDS011;17777;48.770;8.944;2023-07-24T00:41:40;6.53;;;4.68;;
31128;SDS011;17777;48.770;8.944;2023-07-24T00:44:06;5.18;;;4.40;;
31128;SDS011;17777;48.770;8.944;2023-07-24T00:46:32;5.05;;;4.35;;
31128;SDS011;17777;48.770;8.944;2023-07-24T00:49:00;6.78;;;4.38;;
31128;SDS011;17777;48.770;8.944;2023-07-24T00:51:30;7.20;;;4.68;;
31128;SDS011;17777;48.770;8.944;2023-07-24T00:53:57;6.38;;;4.47;;
31128;SDS011;17777;48.770;8.944;2023-07-24T00:56:28;6.00;;;4.57;;
31128;SDS011;17777;48.770;8.944;2023-07-24T00:58:55;6.07;;;4.50;;
31128;SDS011;17777;48.770;8.944;2023-07-24T01:01:22;7.10;;;5.15;;
31128;SDS011;17777;48.770;8.944;2023-07-24T01:03:49;7.15;;;4.18;;
31128;SDS011;17777;48.770;8.944;2023-07-24T01:06:16;6.18;;;3.97;;
31128;SDS011;17777;48.770;8.944;2023-07-24T01:08:42;9.02;;;5.03;;
31128;SDS011;17777;48.770;8.944;2023-07-24T01:11:52;20.13;;;4.65;;
31128;SDS011;17777;48.770;8.944;2023-07-24T01:14:25;7.28;;;4.43;;
31128;SDS011;17777;48.770;8.944;2023-07-24T01:17:00;5.78;;;4.35;;
31128;SDS011;17777;48.770;8.944;2023-07-24T01:19:42;4.90;;;3.70;;
31128;SDS011;17777;48.770;8.944;2023-07-24T01:22:38;6.20;;;4.07;;
31128;SDS011;17777;48.770;8.944;2023-07-24T01:27:46;5.93;;;4.32;;
31128;SDS011;17777;48.770;8.944;2023-07-24T01:30:13;8.10;;;4.22;;
31128;SDS011;17777;48.770;8.944;2023-07-24T01:32:43;7.85;;;4.30;;
31128;SDS011;17777;48.770;8.944;2023-07-24T01:35:09;5.72;;;4.25;;
31128;SDS011;17777;48.770;8.944;2023-07-24T01:37:35;5.38;;;4.47;;
31128;SDS011;17777;48.770;8.944;2023-07-24T01:40:05;6.75;;;4.43;;
31128;SDS011;17777;48.770;8.944;2023-07-24T01:42:33;5.85;;;4.38;;
31128;SDS011;17777;48.770;8.944;2023-07-24T01:45:00;4.68;;;3.80;;
31128;SDS011;17777;48.770;8.944;2023-07-24T01:47:28;6.72;;;4.30;;
31128;SDS011;17777;48.770;8.944;2023-07-24T01:49:55;4.97;;;3.78;;
31128;SDS011;17777;48.770;8.944;2023-07-24T01:52:21;6.13;;;4.22;;
31128;SDS011;17777;48.770;8.944;2023-07-24T01:54:47;5.25;;;3.92;;
31128;SDS011;17777;48.770;8.944;2023-07-24T01:57:13;6.25;;;4.03;;
31128;SDS011;17777;48.770;8.944;2023-07-24T01:59:39;6.18;;;4.38;;
31128;SDS011;17777;48.770;8.944;2023-07-24T02:02:05;7.78;;;4.10;;
31128;SDS011;17777;48.770;8.944;2023-07-24T02:04:30;5.55;;;4.28;;
31128;SDS011;17777;48.770;8.944;2023-07-24T02:06:56;9.43;;;4.82;;
31128;SDS011;17777;48.770;8.944;2023-07-24T02:09:22;6.03;;;3.97;;
31128;SDS011;17777;48.770;8.944;2023-07-24T02:11:48;5.10;;;3.95;;
31128;SDS011;17777;48.770;8.944;2023-07-24T02:14:14;4.97;;;4.30;;
31128;SDS011;17777;48.770;8.944;2023-07-24T02:16:43;5.40;;;3.75;;
31128;SDS011;17777;48.770;8.944;2023-07-24T02:19:09;6.15;;;4.75;;
31128;SDS011;17777;48.770;8.944;2023-07-24T02:21:34;5.45;;;4.22;;
31128;SDS011;17777;48.770;8.944;2023-07-24T02:24:00;5.90;;;3.72;;
31128;SDS011;17777;48.770;8.944;2023-07-24T02:26:26;4.75;;;3.78;;
31128;SDS011;17777;48.770;8.944;2023-07-24T02:28:53;7.07;;;4.13;;
31128;SDS011;17777;48.770;8.944;2023-07-24T02:31:20;6.47;;;4.35;;
31128;SDS011;17777;48.770;8.944;2023-07-24T02:33:46;6.00;;;4.00;;
31128;SDS011;17777;48.770;8.944;2023-07-24T02:36:12;6.00;;;4.43;;
31128;SDS011;17777;48.770;8.944;2023-07-24T02:38:40;5.47;;;4.30;;
31128;SDS011;17777;48.770;8.944;2023-07-24T02:41:06;5.78;;;4.35;;
31128;SDS011;17777;48.770;8.944;2023-07-24T02:43:32;5.05;;;4.07;;
31128;SDS011;17777;48.770;8.944;2023-07-24T02:46:00;6.03;;;4.35;;
31128;SDS011;17777;48.770;8.944;2023-07-24T02:48:27;6.57;;;4.80;;
31128;SDS011;17777;48.770;8.944;2023-07-24T02:50:53;7.35;;;4.47;;
31128;SDS011;17777;48.770;8.944;2023-07-24T02:53:19;7.82;;;4.75;;
31128;SDS011;17777;48.770;8.944;2023-07-24T02:55:45;6.82;;;4.82;;
31128;SDS011;17777;48.770;8.944;2023-07-24T02:58:11;8.00;;;4.40;;
31128;SDS011;17777;48.770;8.944;2023-07-24T03:00:38;6.43;;;4.80;;
31128;SDS011;17777;48.770;8.944;2023-07-24T03:03:04;7.30;;;4.60;;
31128;SDS011;17777;48.770;8.944;2023-07-24T03:05:30;5.22;;;4.38;;
31128;SDS011;17777;48.770;8.944;2023-07-24T03:07:56;5.72;;;4.60;;
31128;SDS011;17777;48.770;8.944;2023-07-24T03:10:22;4.82;;;4.05;;
31128;SDS011;17777;48.770;8.944;2023-07-24T03:12:48;6.57;;;5.10;;
31128;SDS011;17777;48.770;8.944;2023-07-24T03:15:14;6.28;;;4.03;;
31128;SDS011;17777;48.770;8.944;2023-07-24T03:17:40;5.72;;;4.40;;
31128;SDS011;17777;48.770;8.944;2023-07-24T03:20:09;6.30;;;4.53;;
31128;SDS011;17777;48.770;8.944;2023-07-24T03:22:41;5.70;;;4.55;;
31128;SDS011;17777;48.770;8.944;2023-07-24T03:25:08;5.43;;;4.18;;
31128;SDS011;17777;48.770;8.944;2023-07-24T03:27:34;6.15;;;4.95;;
31128;SDS011;17777;48.770;8.944;2023-07-24T03:30:00;8.35;;;4.68;;
31128;SDS011;17777;48.770;8.944;2023-07-24T03:32:26;5.80;;;4.30;;
31128;SDS011;17777;48.770;8.944;2023-07-24T03:34:52;7.03;;;4.72;;
31128;SDS011;17777;48.770;8.944;2023-07-24T03:37:18;6.47;;;4.80;;
31128;SDS011;17777;48.770;8.944;2023-07-24T03:39:44;6.20;;;4.18;;
31128;SDS011;17777;48.770;8.944;2023-07-24T03:42:10;5.60;;;4.47;;
31128;SDS011;17777;48.770;8.944;2023-07-24T03:44:39;6.85;;;4.53;;
31128;SDS011;17777;48.770;8.944;2023-07-24T03:47:06;5.38;;;4.35;;
31128;SDS011;17777;48.770;8.944;2023-07-24T03:49:32;5.28;;;4.18;;
31128;SDS011;17777;48.770;8.944;2023-07-24T03:51:59;5.50;;;3.85;;
31128;SDS011;17777;48.770;8.944;2023-07-24T03:54:24;6.20;;;4.65;;
31128;SDS011;17777;48.770;8.944;2023-07-24T03:56:50;6.45;;;4.15;;
31128;SDS011;17777;48.770;8.944;2023-07-24T03:59:16;5.15;;;4.40;;
31128;SDS011;17777;48.770;8.944;2023-07-24T04:01:41;4.53;;;3.80;;
31128;SDS011;17777;48.770;8.944;2023-07-24T04:04:07;5.47;;;4.18;;
31128;SDS011;17777;48.770;8.944;2023-07-24T04:06:33;5.38;;;4.50;;
31128;SDS011;17777;48.770;8.944;2023-07-24T04:08:59;5.57;;;4.22;;
31128;SDS011;17777;48.770;8.944;2023-07-24T04:11:25;6.03;;;4.78;;
31128;SDS011;17777;48.770;8.944;2023-07-24T04:13:51;6.45;;;4.72;;
31128;SDS011;17777;48.770;8.944;2023-07-24T04:16:16;6.95;;;4.22;;
31128;SDS011;17777;48.770;8.944;2023-07-24T04:18:42;5.47;;;4.40;;
31128;SDS011;17777;48.770;8.944;2023-07-24T04:21:08;7.05;;;4.50;;
31128;SDS011;17777;48.770;8.944;2023-07-24T04:23:34;5.97;;;4.25;;
31128;SDS011;17777;48.770;8.944;2023-07-24T04:25:59;6.13;;;4.70;;
31128;SDS011;17777;48.770;8.944;2023-07-24T04:28:25;5.18;;;3.92;;
31128;SDS011;17777;48.770;8.944;2023-07-24T04:30:51;5.07;;;3.85;;
31128;SDS011;17777;48.770;8.944;2023-07-24T04:33:16;8.43;;;4.93;;
31128;SDS011;17777;48.770;8.944;2023-07-24T04:35:42;6.20;;;4.63;;
31128;SDS011;17777;48.770;8.944;2023-07-24T04:38:08;5.80;;;4.28;;
31128;SDS011;17777;48.770;8.944;2023-07-24T04:40:34;6.82;;;4.47;;
31128;SDS011;17777;48.770;8.944;2023-07-24T04:42:59;5.97;;;4.30;;
31128;SDS011;17777;48.770;8.944;2023-07-24T04:45:26;5.90;;;4.40;;
31128;SDS011;17777;48.770;8.944;2023-07-24T04:47:52;7.68;;;4.45;;
31128;SDS011;17777;48.770;8.944;2023-07-24T04:50:17;5.63;;;4.20;;
31128;SDS011;17777;48.770;8.944;2023-07-24T04:52:43;5.95;;;4.15;;
31128;SDS011;17777;48.770;8.944;2023-07-24T04:55:09;5.68;;;4.40;;
31128;SDS011;17777;48.770;8.944;2023-07-24T04:57:35;5.25;;;4.10;;
31128;SDS011;17777;48.770;8.944;2023-07-24T05:00:00;6.10;;;4.40;;
31128;SDS011;17777;48.770;8.944;2023-07-24T05:02:26;7.13;;;4.28;;
31128;SDS011;17777;48.770;8.944;2023-07-24T05:04:52;5.75;;;4.10;;
31128;SDS011;17777;48.770;8.944;2023-07-24T05:07:18;7.38;;;4.10;;
31128;SDS011;17777;48.770;8.944;2023-07-24T05:09:43;6.10;;;4.22;;
31128;SDS011;17777;48.770;8.944;2023-07-24T05:12:09;4.93;;;3.83;;
31128;SDS011;17777;48.770;8.944;2023-07-24T05:14:35;5.47;;;4.28;;
31128;SDS011;17777;48.770;8.944;2023-07-24T05:17:01;7.20;;;4.40;;
31128;SDS011;17777;48.770;8.944;2023-07-24T05:19:26;6.20;;;4.25;;
31128;SDS011;17777;48.770;8.944;2023-07-24T05:21:52;5.97;;;3.83;;
31128;SDS011;17777;48.770;8.944;2023-07-24T05:24:18;5.32;;;3.92;;
31128;SDS011;17777;48.770;8.944;2023-07-24T05:26:44;6.55;;;4.50;;
31128;SDS011;17777;48.770;8.944;2023-07-24T05:29:09;6.60;;;4.20;;
31128;SDS011;17777;48.770;8.944;2023-07-24T05:31:35;7.53;;;4.15;;
31128;SDS011;17777;48.770;8.944;2023-07-24T05:34:01;10.60;;;4.28;;
31128;SDS011;17777;48.770;8.944;2023-07-24T05:36:28;6.20;;;4.50;;
31128;SDS011;17777;48.770;8.944;2023-07-24T05:38:54;8.05;;;4.88;;
31128;SDS011;17777;48.770;8.944;2023-07-24T05:41:21;4.63;;;3.95;;
31128;SDS011;17777;48.770;8.944;2023-07-24T05:43:47;6.30;;;4.30;;
31128;SDS011;17777;48.770;8.944;2023-07-24T05:46:12;6.32;;;4.60;;
31128;SDS011;17777;48.770;8.944;2023-07-24T05:48:38;8.63;;;4.65;;
31128;SDS011;17777;48.770;8.944;2023-07-24T05:51:04;6.30;;;4.68;;
31128;SDS011;17777;48.770;8.944;2023-07-24T05:53:30;7.15;;;5.00;;
31128;SDS011;17777;48.770;8.944;2023-07-24T05:55:59;7.07;;;4.40;;
31128;SDS011;17777;48.770;8.944;2023-07-24T05:58:25;5.50;;;4.65;;
31128;SDS011;17777;48.770;8.944;2023-07-24T06:00:52;8.35;;;4.70;;
31128;SDS011;17777;48.770;8.944;2023-07-24T06:03:18;6.88;;;4.82;;
31128;SDS011;17777;48.770;8.944;2023-07-24T06:05:44;6.65;;;4.38;;
31128;SDS011;17777;48.770;8.944;2023-07-24T06:08:10;6.35;;;4.53;;
31128;SDS011;17777;48.770;8.944;2023-07-24T06:10:36;6.88;;;4.65;;
31128;SDS011;17777;48.770;8.944;2023-07-24T06:13:02;8.80;;;5.00;;
31128;SDS011;17777;48.770;8.944;2023-07-24T06:15:28;6.80;;;4.93;;
31128;SDS011;17777;48.770;8.944;2023-07-24T06:17:54;9.30;;;4.95;;
31128;SDS011;17777;48.770;8.944;2023-07-24T06:20:19;7.20;;;4.85;;
31128;SDS011;17777;48.770;8.944;2023-07-24T06:22:45;7.97;;;4.72;;
31128;SDS011;17777;48.770;8.944;2023-07-24T06:25:11;8.18;;;5.20;;
31128;SDS011;17777;48.770;8.944;2023-07-24T06:27:37;8.15;;;4.97;;
31128;SDS011;17777;48.770;8.944;2023-07-24T06:30:02;6.32;;;4.47;;
31128;SDS011;17777;48.770;8.944;2023-07-24T06:32:29;6.20;;;4.35;;
31128;SDS011;17777;48.770;8.944;2023-07-24T06:34:54;8.43;;;4.38;;
31128;SDS011;17777;48.770;8.944;2023-07-24T06:37:20;7.45;;;4.65;;
31128;SDS011;17777;48.770;8.944;2023-07-24T06:39:46;6.22;;;4.65;;
31128;SDS011;17777;48.770;8.944;2023-07-24T06:42:12;7.85;;;5.05;;
31128;SDS011;17777;48.770;8.944;2023-07-24T06:44:38;9.00;;;5.00;;
31128;SDS011;17777;48.770;8.944;2023-07-24T06:47:04;7.10;;;5.35;;
31128;SDS011;17777;48.770;8.944;2023-07-24T06:49:29;8.25;;;4.00;;
31128;SDS011;17777;48.770;8.944;2023-07-24T06:51:55;9.05;;;5.22;;
31128;SDS011;17777;48.770;8.944;2023-07-24T06:54:21;8.45;;;4.95;;
31128;SDS011;17777;48.770;8.944;2023-07-24T06:56:47;7.03;;;4.10;;
31128;SDS011;17777;48.770;8.944;2023-07-24T06:59:12;8.65;;;5.15;;
31128;SDS011;17777;48.770;8.944;2023-07-24T07:01:38;7.38;;;4.53;;
31128;SDS011;17777;48.770;8.944;2023-07-24T07:04:04;6.93;;;4.70;;
31128;SDS011;17777;48.770;8.944;2023-07-24T07:06:29;8.55;;;4.80;;
31128;SDS011;17777;48.770;8.944;2023-07-24T07:08:55;7.07;;;5.20;;
31128;SDS011;17777;48.770;8.944;2023-07-24T07:11:21;7.07;;;4.50;;
31128;SDS011;17777;48.770;8.944;2023-07-24T07:13:47;6.18;;;4.78;;
31128;SDS011;17777;48.770;8.944;2023-07-24T07:16:12;6.53;;;4.72;;
31128;SDS011;17777;48.770;8.944;2023-07-24T07:18:38;7.35;;;4.50;;
31128;SDS011;17777;48.770;8.944;2023-07-24T07:21:04;7.28;;;4.57;;
31128;SDS011;17777;48.770;8.944;2023-07-24T07:23:29;9.40;;;5.70;;
31128;SDS011;17777;48.770;8.944;2023-07-24T07:25:55;7.07;;;4.93;;
31128;SDS011;17777;48.770;8.944;2023-07-24T07:28:21;8.18;;;4.88;;
31128;SDS011;17777;48.770;8.944;2023-07-24T07:30:47;10.88;;;5.38;;
31128;SDS011;17777;48.770;8.944;2023-07-24T07:33:12;9.88;;;6.00;;
31128;SDS011;17777;48.770;8.944;2023-07-24T07:35:38;7.45;;;4.72;;
31128;SDS011;17777;48.770;8.944;2023-07-24T07:38:04;7.97;;;4.63;;
31128;SDS011;17777;48.770;8.944;2023-07-24T07:40:30;6.40;;;4.82;;
31128;SDS011;17777;48.770;8.944;2023-07-24T07:42:56;12.50;;;5.30;;
31128;SDS011;17777;48.770;8.944;2023-07-24T07:45:22;7.80;;;4.70;;
31128;SDS011;17777;48.770;8.944;2023-07-24T07:47:48;8.15;;;4.97;;
31128;SDS011;17777;48.770;8.944;2023-07-24T07:50:15;10.10;;;5.10;;
31128;SDS011;17777;48.770;8.944;2023-07-24T07:52:41;10.57;;;5.35;;
31128;SDS011;17777;48.770;8.944;2023-07-24T07:55:06;12.95;;;5.32;;
31128;SDS011;17777;48.770;8.944;2023-07-24T07:57:36;5.88;;;4.88;;
31128;SDS011;17777;48.770;8.944;2023-07-24T08:00:03;6.72;;;4.68;;
31128;SDS011;17777;48.770;8.944;2023-07-24T08:02:33;8.88;;;5.30;;
31128;SDS011;17777;48.770;8.944;2023-07-24T08:04:59;6.78;;;4.60;;
31128;SDS011;17777;48.770;8.944;2023-07-24T08:07:25;6.05;;;4.63;;
31128;SDS011;17777;48.770;8.944;2023-07-24T08:09:51;4.88;;;4.18;;
31128;SDS011;17777;48.770;8.944;2023-07-24T08:12:17;6.93;;;4.97;;
31128;SDS011;17777;48.770;8.944;2023-07-24T08:14:42;7.20;;;4.32;;
31128;SDS011;17777;48.770;8.944;2023-07-24T08:17:08;5.03;;;4.20;;
31128;SDS011;17777;48.770;8.944;2023-07-24T08:19:34;6.80;;;3.88;;
31128;SDS011;17777;48.770;8.944;2023-07-24T08:22:00;5.85;;;3.92;;
31128;SDS011;17777;48.770;8.944;2023-07-24T08:24:25;6.97;;;4.55;;
31128;SDS011;17777;48.770;8.944;2023-07-24T08:26:51;8.02;;;4.03;;
31128;SDS011;17777;48.770;8.944;2023-07-24T08:29:17;5.57;;;3.85;;
31128;SDS011;17777;48.770;8.944;2023-07-24T08:31:43;7.20;;;4.00;;
31128;SDS011;17777;48.770;8.944;2023-07-24T08:34:08;6.07;;;3.97;;
31128;SDS011;17777;48.770;8.944;2023-07-24T08:36:34;5.10;;;4.18;;
31128;SDS011;17777;48.770;8.944;2023-07-24T08:39:02;6.13;;;4.03;;
31128;SDS011;17777;48.770;8.944;2023-07-24T08:41:28;4.78;;;3.58;;
31128;SDS011;17777;48.770;8.944;2023-07-24T08:43:56;6.07;;;4.85;;
31128;SDS011;17777;48.770;8.944;2023-07-24T08:46:22;9.43;;;4.45;;
31128;SDS011;17777;48.770;8.944;2023-07-24T08:48:48;8.80;;;4.03;;
31128;SDS011;17777;48.770;8.944;2023-07-24T08:51:14;5.18;;;3.92;;
31128;SDS011;17777;48.770;8.944;2023-07-24T08:53:49;7.38;;;4.32;;
31128;SDS011;17777;48.770;8.944;2023-07-24T08:56:15;5.60;;;4.00;;
31128;SDS011;17777;48.770;8.944;2023-07-24T08:58:41;7.70;;;3.95;;
31128;SDS011;17777;48.770;8.944;2023-07-24T09:01:07;6.53;;;3.90;;
31128;SDS011;17777;48.770;8.944;2023-07-24T09:03:34;4.70;;;3.92;;
31128;SDS011;17777;48.770;8.944;2023-07-24T09:06:00;4.78;;;3.88;;
31128;SDS011;17777;48.770;8.944;2023-07-24T09:08:32;7.13;;;3.70;;
31128;SDS011;17777;48.770;8.944;2023-07-24T09:11:04;9.75;;;3.58;;
31128;SDS011;17777;48.770;8.944;2023-07-24T09:13:30;4.25;;;3.25;;
31128;SDS011;17777;48.770;8.944;2023-07-24T09:15:57;4.28;;;3.40;;
31128;SDS011;17777;48.770;8.944;2023-07-24T09:18:24;4.18;;;3.20;;
31128;SDS011;17777;48.770;8.944;2023-07-24T09:20:50;3.53;;;3.03;;
31128;SDS011;17777;48.770;8.944;2023-07-24T09:23:16;4.03;;;3.22;;
31128;SDS011;17777;48.770;8.944;2023-07-24T09:25:53;5.65;;;3.15;;
31128;SDS011;17777;48.770;8.944;2023-07-24T09:28:19;3.55;;;3.17;;
31128;SDS011;17777;48.770;8.944;2023-07-24T09:30:53;3.60;;;2.90;;
31128;SDS011;17777;48.770;8.944;2023-07-24T09:33:33;3.97;;;3.00;;
31128;SDS011;17777;48.770;8.944;2023-07-24T09:36:05;2.92;;;2.60;;
31128;SDS011;17777;48.770;8.944;2023-07-24T09:38:33;5.40;;;3.50;;
31128;SDS011;17777;48.770;8.944;2023-07-24T09:41:01;3.75;;;2.85;;
31128;SDS011;17777;48.770;8.944;2023-07-24T09:43:30;3.72;;;3.08;;
31128;SDS011;17777;48.770;8.944;2023-07-24T09:45:57;3.75;;;3.08;;
31128;SDS011;17777;48.770;8.944;2023-07-24T09:48:27;4.82;;;3.47;;
31128;SDS011;17777;48.770;8.944;2023-07-24T09:50:53;3.75;;;3.35;;
31128;SDS011;17777;48.770;8.944;2023-07-24T09:53:32;4.10;;;3.70;;
31128;SDS011;17777;48.770;8.944;2023-07-24T09:56:01;4.35;;;3.38;;
31128;SDS011;17777;48.770;8.944;2023-07-24T09:58:30;3.75;;;3.35;;
31128;SDS011;17777;48.770;8.944;2023-07-24T10:01:03;5.72;;;3.40;;
31128;SDS011;17777;48.770;8.944;2023-07-24T10:03:32;3.92;;;3.10;;
31128;SDS011;17777;48.770;8.944;2023-07-24T10:06:11;4.47;;;2.97;;
31128;SDS011;17777;48.770;8.944;2023-07-24T10:08:40;3.70;;;3.03;;
31128;SDS011;17777;48.770;8.944;2023-07-24T10:11:07;3.63;;;2.83;;
31128;SDS011;17777;48.770;8.944;2023-07-24T10:13:37;3.30;;;3.00;;
31128;SDS011;17777;48.770;8.944;2023-07-24T10:16:04;4.25;;;3.35;;
31128;SDS011;17777;48.770;8.944;2023-07-24T10:18:32;4.20;;;3.15;;
31128;SDS011;17777;48.770;8.944;2023-07-24T10:21:07;4.43;;;3.35;;
31128;SDS011;17777;48.770;8.944;2023-07-24T10:23:35;4.40;;;3.30;;
31128;SDS011;17777;48.770;8.944;2023-07-24T10:26:04;3.95;;;3.13;;
31128;SDS011;17777;48.770;8.944;2023-07-24T10:28:32;4.10;;;3.22;;
31128;SDS011;17777;48.770;8.944;2023-07-24T10:31:04;3.90;;;2.90;;
31128;SDS011;17777;48.770;8.944;2023-07-24T10:33:44;3.63;;;3.08;;
31128;SDS011;17777;48.770;8.944;2023-07-24T10:36:11;4.20;;;2.95;;
31128;SDS011;17777;48.770;8.944;2023-07-24T10:38:42;4.28;;;3.30;;
31128;SDS011;17777;48.770;8.944;2023-07-24T10:41:09;5.00;;;3.15;;
31128;SDS011;17777;48.770;8.944;2023-07-24T10:43:49;4.03;;;3.22;;
31128;SDS011;17777;48.770;8.944;2023-07-24T10:46:17;4.63;;;3.15;;
31128;SDS011;17777;48.770;8.944;2023-07-24T10:48:46;3.83;;;2.90;;
31128;SDS011;17777;48.770;8.944;2023-07-24T10:51:17;4.10;;;3.38;;
31128;SDS011;17777;48.770;8.944;2023-07-24T10:53:46;4.72;;;2.95;;
31128;SDS011;17777;48.770;8.944;2023-07-24T10:56:14;4.75;;;3.10;;
31128;SDS011;17777;48.770;8.944;2023-07-24T10:58:41;3.17;;;2.85;;
31128;SDS011;17777;48.770;8.944;2023-07-24T11:01:07;5.35;;;3.30;;
31128;SDS011;17777;48.770;8.944;2023-07-24T11:03:36;3.85;;;2.88;;
31128;SDS011;17777;48.770;8.944;2023-07-24T11:06:04;3.45;;;3.00;;
31128;SDS011;17777;48.770;8.944;2023-07-24T11:08:30;4.38;;;3.25;;
31128;SDS011;17777;48.770;8.944;2023-07-24T11:10:57;7.65;;;3.17;;
31128;SDS011;17777;48.770;8.944;2023-07-24T11:13:24;3.22;;;2.88;;
31128;SDS011;17777;48.770;8.944;2023-07-24T11:15:52;3.50;;;2.90;;
31128;SDS011;17777;48.770;8.944;2023-07-24T11:18:19;4.45;;;3.10;;
31128;SDS011;17777;48.770;8.944;2023-07-24T11:20:52;4.88;;;3.45;;
31128;SDS011;17777;48.770;8.944;2023-07-24T11:23:20;4.57;;;3.20;;
31128;SDS011;17777;48.770;8.944;2023-07-24T11:25:47;3.75;;;3.13;;
31128;SDS011;17777;48.770;8.944;2023-07-24T11:28:17;4.53;;;3.20;;
31128;SDS011;17777;48.770;8.944;2023-07-24T11:30:43;4.90;;;3.28;;
31128;SDS011;17777;48.770;8.944;2023-07-24T11:33:10;4.55;;;3.25;;
31128;SDS011;17777;48.770;8.944;2023-07-24T11:35:38;6.70;;;3.30;;
31128;SDS011;17777;48.770;8.944;2023-07-24T11:38:06;5.70;;;3.67;;
31128;SDS011;17777;48.770;8.944;2023-07-24T11:40:38;4.18;;;3.28;;
31128;SDS011;17777;48.770;8.944;2023-07-24T11:43:15;4.88;;;3.50;;
31128;SDS011;17777;48.770;8.944;2023-07-24T11:45:46;3.50;;;3.00;;
31128;SDS011;17777;48.770;8.944;2023-07-24T11:48:19;3.67;;;2.80;;
31128;SDS011;17777;48.770;8.944;2023-07-24T11:50:47;7.20;;;3.88;;
31128;SDS011;17777;48.770;8.944;2023-07-24T11:53:20;5.57;;;3.17;;
31128;SDS011;17777;48.770;8.944;2023-07-24T11:55:57;3.13;;;2.83;;
31128;SDS011;17777;48.770;8.944;2023-07-24T11:58:28;3.22;;;2.90;;
31128;SDS011;17777;48.770;8.944;2023-07-24T12:00:55;4.00;;;2.95;;
31128;SDS011;17777;48.770;8.944;2023-07-24T12:03:22;4.05;;;3.17;;
31128;SDS011;17777;48.770;8.944;2023-07-24T12:05:52;3.70;;;3.20;;
31128;SDS011;17777;48.770;8.944;2023-07-24T12:08:19;4.13;;;3.13;;
31128;SDS011;17777;48.770;8.944;2023-07-24T12:10:54;3.72;;;2.88;;
31128;SDS011;17777;48.770;8.944;2023-07-24T12:13:20;4.53;;;2.90;;
31128;SDS011;17777;48.770;8.944;2023-07-24T12:15:45;4.85;;;3.47;;
31128;SDS011;17777;48.770;8.944;2023-07-24T12:18:11;3.47;;;3.00;;
31128;SDS011;17777;48.770;8.944;2023-07-24T12:20:37;9.10;;;3.20;;
31128;SDS011;17777;48.770;8.944;2023-07-24T12:23:03;3.97;;;3.22;;
31128;SDS011;17777;48.770;8.944;2023-07-24T12:25:29;3.85;;;3.03;;
31128;SDS011;17777;48.770;8.944;2023-07-24T12:27:55;3.20;;;2.90;;
31128;SDS011;17777;48.770;8.944;2023-07-24T12:30:21;4.38;;;3.22;;
31128;SDS011;17777;48.770;8.944;2023-07-24T12:32:47;3.60;;;2.85;;
31128;SDS011;17777;48.770;8.944;2023-07-24T12:35:13;3.97;;;2.97;;
31128;SDS011;17777;48.770;8.944;2023-07-24T12:37:39;4.38;;;3.20;;
31128;SDS011;17777;48.770;8.944;2023-07-24T12:40:05;4.10;;;3.30;;
31128;SDS011;17777;48.770;8.944;2023-07-24T12:42:31;3.05;;;2.75;;
31128;SDS011;17777;48.770;8.944;2023-07-24T12:44:57;4.05;;;3.15;;
31128;SDS011;17777;48.770;8.944;2023-07-24T12:47:23;3.38;;;2.85;;
31128;SDS011;17777;48.770;8.944;2023-07-24T12:49:49;4.00;;;2.92;;
31128;SDS011;17777;48.770;8.944;2023-07-24T12:52:16;3.20;;;2.90;;
31128;SDS011;17777;48.770;8.944;2023-07-24T12:54:42;3.17;;;2.88;;
31128;SDS011;17777;48.770;8.944;2023-07-24T12:57:07;3.03;;;2.63;;
31128;SDS011;17777;48.770;8.944;2023-07-24T12:59:33;2.95;;;2.60;;
31128;SDS011;17777;48.770;8.944;2023-07-24T13:01:59;3.30;;;2.92;;
31128;SDS011;17777;48.770;8.944;2023-07-24T13:04:25;3.28;;;2.72;;
31128;SDS011;17777;48.770;8.944;2023-07-24T13:06:50;3.17;;;2.55;;
31128;SDS011;17777;48.770;8.944;2023-07-24T13:09:17;7.38;;;2.78;;
31128;SDS011;17777;48.770;8.944;2023-07-24T13:11:44;2.97;;;2.67;;
31128;SDS011;17777;48.770;8.944;2023-07-24T13:14:13;3.83;;;3.03;;
31128;SDS011;17777;48.770;8.944;2023-07-24T13:16:40;3.03;;;2.50;;
31128;SDS011;17777;48.770;8.944;2023-07-24T13:19:06;3.58;;;3.00;;
31128;SDS011;17777;48.770;8.944;2023-07-24T13:21:31;3.00;;;2.63;;
31128;SDS011;17777;48.770;8.944;2023-07-24T13:23:57;2.97;;;2.67;;
31128;SDS011;17777;48.770;8.944;2023-07-24T13:26:23;3.83;;;3.00;;
31128;SDS011;17777;48.770;8.944;2023-07-24T13:28:49;3.63;;;3.08;;
31128;SDS011;17777;48.770;8.944;2023-07-24T13:31:16;3.20;;;2.90;;
31128;SDS011;17777;48.770;8.944;2023-07-24T13:33:43;3.70;;;2.92;;
31128;SDS011;17777;48.770;8.944;2023-07-24T13:36:09;3.63;;;2.85;;
31128;SDS011;17777;48.770;8.944;2023-07-24T13:38:35;2.85;;;2.63;;
31128;SDS011;17777;48.770;8.944;2023-07-24T13:41:02;3.22;;;2.92;;
31128;SDS011;17777;48.770;8.944;2023-07-24T13:43:29;3.20;;;2.80;;
31128;SDS011;17777;48.770;8.944;2023-07-24T13:45:56;4.03;;;3.10;;
31128;SDS011;17777;48.770;8.944;2023-07-24T13:48:22;2.80;;;2.60;;
31128;SDS011;17777;48.770;8.944;2023-07-24T13:50:49;3.70;;;2.70;;
31128;SDS011;17777;48.770;8.944;2023-07-24T13:53:15;3.22;;;2.70;;
31128;SDS011;17777;48.770;8.944;2023-07-24T13:55:41;3.22;;;2.80;;
31128;SDS011;17777;48.770;8.944;2023-07-24T13:58:07;3.30;;;2.63;;
31128;SDS011;17777;48.770;8.944;2023-07-24T14:00:33;3.25;;;2.88;;
31128;SDS011;17777;48.770;8.944;2023-07-24T14:02:58;3.38;;;2.75;;
31128;SDS011;17777;48.770;8.944;2023-07-24T14:05:24;3.90;;;2.72;;
31128;SDS011;17777;48.770;8.944;2023-07-24T14:07:50;3.00;;;2.70;;
31128;SDS011;17777;48.770;8.944;2023-07-24T14:10:16;5.22;;;2.63;;
31128;SDS011;17777;48.770;8.944;2023-07-24T14:12:41;3.03;;;2.67;;
31128;SDS011;17777;48.770;8.944;2023-07-24T14:15:07;3.50;;;2.95;;
31128;SDS011;17777;48.770;8.944;2023-07-24T14:17:34;2.67;;;2.35;;
31128;SDS011;17777;48.770;8.944;2023-07-24T14:20:02;2.60;;;2.40;;
31128;SDS011;17777;48.770;8.944;2023-07-24T14:22:30;2.80;;;2.55;;
31128;SDS011;17777;48.770;8.944;2023-07-24T14:24:55;3.00;;;2.70;;
31128;SDS011;17777;48.770;8.944;2023-07-24T14:27:21;3.05;;;2.70;;
31128;SDS011;17777;48.770;8.944;2023-07-24T14:29:47;2.95;;;2.30;;
31128;SDS011;17777;48.770;8.944;2023-07-24T14:32:13;2.72;;;2.40;;
31128;SDS011;17777;48.770;8.944;2023-07-24T14:34:40;2.58;;;2.38;;
31128;SDS011;17777;48.770;8.944;2023-07-24T14:37:07;3.05;;;2.75;;
31128;SDS011;17777;48.770;8.944;2023-07-24T14:39:33;2.97;;;2.35;;
31128;SDS011;17777;48.770;8.944;2023-07-24T14:41:59;2.83;;;2.53;;
31128;SDS011;17777;48.770;8.944;2023-07-24T14:44:25;2.95;;;2.50;;
31128;SDS011;17777;48.770;8.944;2023-07-24T14:46:51;3.10;;;2.80;;
31128;SDS011;17777;48.770;8.944;2023-07-24T14:49:17;2.70;;;2.50;;